METAR Data
IDs: Format: Raw Decoded Include TAF

Data at: 2243 UTC 20 Nov 2018

KJAS 202235Z AUTO 00000KT 10SM CLR 14/07 A3029 RMK AO2 T01420071
KJAS 202215Z AUTO 36005KT 10SM CLR 15/06 A3029 RMK AO2 T01480064
KJAS 202155Z AUTO 33006KT 10SM CLR 15/07 A3029 RMK AO2 T01510065
KJAS 202135Z AUTO 35008KT 10SM CLR 15/07 A3029 RMK AO2 T01530065
KJAS 202115Z AUTO 33008KT 10SM CLR 16/06 A3028 RMK AO2 T01550064
KJAS 202055Z AUTO 35009KT 10SM CLR 16/07 A3028 RMK AO2 T01560065
KJAS 202035Z AUTO 33008KT 10SM CLR 16/07 A3028 RMK AO2 T01560065
KJAS 202015Z AUTO 35007KT 10SM CLR 16/06 A3028 RMK AO2 T01550059
KJAS 201955Z AUTO 35006KT 10SM CLR 15/06 A3029 RMK AO2 T01530058
KJAS 201935Z AUTO 03005KT 10SM CLR 15/06 A3030 RMK AO2 T01520062
KJAS 201915Z AUTO 34006KT 10SM CLR 15/07 A3030 RMK AO2 T01500066
KJAS 201855Z AUTO 35006KT 10SM CLR 15/06 A3031 RMK AO2 T01460063
KJAS 201835Z AUTO 35008KT 10SM CLR 14/06 A3032 RMK AO2 T01420060
KJAS 201815Z AUTO 03004KT 10SM CLR 14/06 A3033 RMK AO2 T01370060
KJAS 201755Z AUTO 04008KT 10SM CLR 13/05 A3034 RMK AO2 T01340054
KJAS 201735Z AUTO 03006KT 10SM CLR 13/06 A3035 RMK AO2 T01310057
KJAS 201715Z AUTO 04006KT 10SM CLR 13/06 A3036 RMK AO2 T01280058
KJAS 201655Z AUTO 03006KT 10SM CLR 12/06 A3036 RMK AO2 T01240058
KJAS 201635Z AUTO 04008KT 350V060 10SM CLR 12/06 A3036 RMK AO2 T01210063
KJAS 201615Z AUTO 02005KT 10SM CLR 11/06 A3036 RMK AO2 T01140062
KJAS 201555Z AUTO 04009KT 10SM CLR 11/06 A3036 RMK AO2 T01060060
KJAS 201535Z AUTO 03007KT 10SM CLR 10/06 A3036 RMK AO2 T01020062
KJAS 201515Z AUTO 02006KT 10SM CLR 10/06 A3035 RMK AO2 T00950062
KJAS 201455Z AUTO 03006KT 10SM CLR 09/06 A3035 RMK AO2 T00880063
KJAS 201435Z AUTO 03006KT 10SM CLR 08/06 A3034 RMK AO2 T00800063
KJAS 201415Z AUTO 04006KT 10SM CLR 07/06 A3033 RMK AO2 T00720062
KJAS 201355Z AUTO 01003KT 10SM CLR 06/06 A3032 RMK AO2 T00630056
KJAS 201335Z AUTO 00000KT 10SM CLR 06/05 A3032 RMK AO2 T00560050
KJAS 201315Z AUTO 00000KT 10SM CLR 06/05 A3031 RMK AO2 T00550048
KJAS 201255Z AUTO 02003KT 10SM CLR 05/05 A3030 RMK AO2 T00530047
KJAS 201235Z AUTO 02004KT 10SM CLR 05/04 A3029 RMK AO2 T00450040
KJAS 201215Z AUTO 01003KT 10SM CLR 04/03 A3029 RMK AO2 T00370034
KJAS 201155Z AUTO 00000KT 10SM CLR 04/04 A3028 RMK AO2 T00400037
KJAS 201135Z AUTO 35004KT 10SM CLR 05/05 A3028 RMK AO2 T00530048
KJAS 201115Z AUTO 00000KT 10SM CLR 06/06 A3027 RMK AO2 T00610055
KJAS 201055Z AUTO 00000KT 10SM CLR 07/06 A3027 RMK AO2 T00650058
KJAS 201035Z AUTO 00000KT 10SM CLR 06/06 A3026 RMK AO2 T00620056
KJAS 201015Z AUTO 00000KT 10SM CLR 05/05 A3026 RMK AO2 T00540050
KJAS 200955Z AUTO 36003KT 10SM CLR 05/04 A3026 RMK AO2 T00480044
KJAS 200935Z AUTO 35004KT 10SM CLR 05/04 A3025 RMK AO2 T00450041
KJAS 200915Z AUTO 01003KT 10SM CLR 04/04 A3025 RMK AO2 T00410038
KJAS 200855Z AUTO 00000KT 10SM CLR 04/04 A3024 RMK AO2 T00410038
KJAS 200835Z AUTO 35003KT 10SM CLR 05/04 A3024 RMK AO2 T00450041
KJAS 200815Z AUTO 00000KT 10SM CLR 05/04 A3024 RMK AO2 T00450042
KJAS 200755Z AUTO 01003KT 10SM CLR 05/05 A3025 RMK AO2 T00510048
KJAS 200735Z AUTO 00000KT 10SM CLR 06/06 A3025 RMK AO2 T00620058
KJAS 200715Z AUTO 00000KT 10SM SCT050 08/07 A3025 RMK AO2 T00750069
KJAS 200655Z AUTO 34003KT 10SM BKN050 08/08 A3025 RMK AO2 T00830075
KJAS 200635Z AUTO 35004KT 10SM SCT026 SCT031 OVC050 09/08 A3025 RMK AO2 T00870079
KJAS 200610Z AUTO 36004KT 10SM BKN026 BKN031 OVC055 09/08 A3025 RMK AO2 T00920081
KJAS 200555Z AUTO 01004KT 10SM OVC026 09/08 A3025 RMK AO2 T00930081
KJAS 200535Z AUTO 36003KT 10SM OVC028 09/08 A3025 RMK AO2 T00930081
KJAS 200515Z AUTO 01003KT 10SM OVC030 09/08 A3025 RMK AO2 T00940083
KJAS 200455Z AUTO 01004KT 10SM OVC030 09/08 A3024 RMK AO2 T00930083
KJAS 200430Z AUTO 36003KT 10SM OVC028 09/08 A3024 RMK AO2 T00860078
KJAS 200415Z AUTO 35004KT 10SM OVC028 08/07 A3024 RMK AO2 T00790072
KJAS 200355Z AUTO 35004KT 10SM SCT006 OVC028 07/06 A3023 RMK AO2 T00680063
KJAS 200335Z AUTO 01005KT 10SM BKN006 BKN009 OVC028 06/06 A3022 RMK AO2 T00630058
KJAS 200315Z AUTO 01005KT 10SM BKN006 OVC026 07/06 A3022 RMK AO2 T00650060
KJAS 200255Z AUTO 01004KT 10SM BKN006 OVC026 06/06 A3021 RMK AO2 T00610057
KJAS 200235Z AUTO 01005KT 10SM OVC006 06/06 A3021 RMK AO2 T00580055
KJAS 200215Z AUTO 36004KT 10SM OVC006 06/05 A3021 RMK AO2 T00560052
KJAS 200155Z AUTO 36005KT 10SM OVC006 06/05 A3021 RMK AO2 T00560052
KJAS 200135Z AUTO 01005KT 10SM OVC006 06/05 A3020 RMK AO2 T00560052
KJAS 200115Z AUTO 00000KT 10SM OVC006 06/05 A3020 RMK AO2 T00550052
KJAS 200055Z AUTO 01003KT 10SM OVC006 05/05 A3018 RMK AO2 T00540051
KJAS 200035Z AUTO 01003KT 10SM OVC006 05/05 A3019 RMK AO2 T00520050
KJAS 200015Z AUTO 33004KT 10SM OVC004 05/05 A3018 RMK AO2 T00520050
KJAS 192355Z AUTO 34003KT 10SM OVC004 05/05 A3017 RMK AO2 P0001 T00520050
KJAS 192335Z AUTO 00000KT 10SM OVC006 05/05 A3017 RMK AO2 P0001 T00520050
KJAS 192315Z AUTO 36003KT 10SM -DZ BKN006 OVC015 05/05 A3017 RMK AO2 P0001 T00520050
KJAS 192255Z AUTO 34004KT 10SM OVC004 05/05 A3017 RMK AO2 P0005 T00520050
KJAS 192235Z AUTO 01003KT 4SM DZ OVC004 05/05 A3016 RMK AO2 P0005 T00520050
KJAS 192215Z AUTO 35003KT 3SM +RA OVC004 05/05 A3016 RMK AO2 P0004 T00520050
KJAS 192155Z AUTO 00000KT 4SM DZ BKN004 BKN011 OVC022 05/05 A3016 RMK AO2 P0009 T00510048
KJAS 192135Z AUTO 00000KT 3SM RA BKN006 OVC011 05/05 A3015 RMK AO2 P0006 T00520050
KJAS 192115Z AUTO 36003KT 3SM +DZ BKN006 OVC009 05/05 A3016 RMK AO2 P0001 T00520050
KJAS 192055Z AUTO 34004KT 4SM RA OVC004 06/05 A3016 RMK AO2 P0005 T00550051
KJAS 192035Z AUTO 36003KT 5SM -DZ OVC004 06/05 A3016 RMK AO2 P0003 T00550051
KJAS 192015Z AUTO 01003KT 3SM +DZ OVC004 06/05 A3016 RMK AO2 P0002 T00570053
KJAS 191955Z AUTO 34003KT 5SM DZ OVC006 06/06 A3017 RMK AO2 P0001 T00590055
KJAS 191935Z AUTO 36003KT 5SM -DZ OVC006 06/06 A3017 RMK AO2 P0001 T00600055
KJAS 191915Z AUTO 36003KT 10SM OVC006 06/06 A3017 RMK AO2 P0001 T00610056
KJAS 191855Z AUTO 36005KT 10SM -DZ OVC006 07/06 A3018 RMK AO2 P0001 T00650060
KJAS 191835Z AUTO 36004KT 10SM DZ OVC006 07/06 A3019 RMK AO2 P0001 T00660061
KJAS 191815Z AUTO 01004KT 7SM RA OVC006 06/06 A3021 RMK AO2 T00640059
KJAS 191755Z AUTO 35004KT 10SM BKN006 OVC018 06/06 A3022 RMK AO2 T00610056
KJAS 191735Z AUTO 36004KT 10SM BKN006 OVC018 06/05 A3023 RMK AO2 T00580054
KJAS 191715Z AUTO 35005KT 10SM -DZ BKN006 OVC016 05/05 A3023 RMK AO2 T00530050
KJAS 191655Z AUTO 35006KT 10SM BKN006 OVC016 05/05 A3024 RMK AO2 P0002 T00490046
KJAS 191635Z AUTO 32005KT 7SM -DZ BKN006 OVC015 05/04 A3025 RMK AO2 P0001 T00460044
KJAS 191615Z AUTO 00000KT 10SM -RA BKN006 OVC017 05/04 A3024 RMK AO2 P0001 T00460043
KJAS 191555Z AUTO 35005KT 1/2SM -SN OVC006 05/05 A3023 RMK AO2 P0043 T00470045
KJAS 191535Z AUTO 33003KT 5SM RA BKN006 OVC017 05/05 A3024 RMK AO2 P0015 T00490046
KJAS 191515Z AUTO 01004KT 2 1/2SM -RA BKN006 OVC016 05/05 A3023 RMK AO2 P0010 T00520049
KJAS 191455Z AUTO 01003KT 3SM RA BKN006 BKN013 OVC090 05/05 A3023 RMK AO2 P0022 T00540050
KJAS 191435Z AUTO 31003KT 5SM RA BKN006 BKN015 OVC090 06/05 A3023 RMK AO2 P0014 T00560051
KJAS 191415Z AUTO 01004KT 3SM -RA OVC006 06/05 A3023 RMK AO2 P0006 T00560052
KJAS 191355Z AUTO 35007KT 5SM RA OVC006 06/05 A3021 RMK AO2 P0008 T00580054
KJAS 191335Z AUTO 34007KT 10SM RA OVC004 06/06 A3022 RMK AO2 P0003 T00600056
KJAS 191315Z AUTO 36004KT 10SM -RA OVC004 06/06 A3020 RMK AO2 T00600056
KJAS 191255Z AUTO 36005KT 10SM OVC004 06/06 A3019 RMK AO2 T00620058
KJAS 191235Z AUTO 01004KT 10SM OVC004 07/06 A3019 RMK AO2 T00650060
KJAS 191215Z AUTO 33004KT 10SM OVC006 06/06 A3019 RMK AO2 T00640060
KJAS 191155Z AUTO 01003KT 10SM OVC006 06/06 A3017 RMK AO2 T00620058
KJAS 191135Z AUTO 03003KT 10SM OVC006 06/06 A3016 RMK AO2 T00610058
KJAS 191115Z AUTO 02004KT 7SM -DZ OVC004 07/06 A3016 RMK AO2 T00660062
KJAS 191055Z AUTO 00000KT 5SM -RA OVC006 08/07 A3017 RMK AO2 P0004 T00750070